KSPA/SPA METAR and TAF weather

Enter ICAO airport designator
Station Type Date Time Source
KSPA METAR 2020/01/18 13:15 UTC NOAA

KSPA 181315Z AUTO 00000KT 10SM OVC036 02/M06 A3048 RMK AO2


Station Type Date Time Source
KSPA Decoded METAR 2020/01/18 13:15 UTC NOAA

Spartanburg Memorial, SC, United States (KSPA) 34-55N 081-57W
Jan 18, 2020 - 08:15 AM EST / 2020.01.18 1315 UTC
Wind: Calm:0
Visibility: 10 mile(s):0
Sky conditions: overcast
Temperature: 35 F (2 C)
Dew Point: 21 F (-6 C)
Relative Humidity: 55%
Pressure (altimeter): 30.48 in. Hg (1032 hPa)
ob: KSPA 181315Z AUTO 00000KT 10SM OVC036 02/M06 A3048 RMK AO2
cycle: 13

Station Type Date Time Source
KSPA TAF UTC NOAA

Error!

Example: see airport list